createdAt,value
2019-03-31T00:00:08.035Z,58.27
2019-03-31T00:02:37.367Z,58.17
2019-03-31T00:05:06.657Z,55.07
2019-03-31T00:07:35.933Z,50.90
2019-03-31T00:10:08.170Z,47.70
2019-03-31T00:12:37.381Z,55.93
2019-03-31T00:15:08.512Z,59.50
2019-03-31T00:17:37.765Z,59.17
2019-03-31T00:20:08.054Z,54.40
2019-03-31T00:22:37.320Z,58.10
2019-03-31T00:25:06.908Z,51.43
2019-03-31T00:27:36.315Z,50.43
2019-03-31T00:30:06.499Z,55.33
2019-03-31T00:32:35.717Z,51.07
2019-03-31T00:35:04.970Z,52.63
2019-03-31T00:37:34.144Z,57.13
2019-03-31T00:40:04.355Z,53.63
2019-03-31T00:42:33.767Z,52.50
2019-03-31T00:45:03.103Z,51.90
2019-03-31T00:47:32.335Z,52.97
2019-03-31T00:50:01.539Z,51.57
2019-03-31T00:52:30.766Z,52.07
2019-03-31T00:54:59.914Z,52.43
2019-03-31T00:57:29.206Z,51.67
2019-03-31T00:59:58.618Z,54.30
2019-03-31T01:02:30.418Z,52.17
2019-03-31T01:05:00.010Z,46.03
2019-03-31T01:07:29.785Z,45.33
2019-03-31T01:09:59.681Z,43.00
2019-03-31T01:12:29.618Z,49.53
2019-03-31T01:14:59.053Z,53.90
2019-03-31T01:17:28.678Z,52.30
2019-03-31T01:19:59.763Z,53.87
2019-03-31T01:22:29.338Z,52.27
2019-03-31T01:24:58.578Z,49.47
2019-03-31T01:27:28.474Z,51.80
2019-03-31T01:29:57.666Z,50.50
2019-03-31T01:32:26.938Z,53.30
2019-03-31T01:34:56.162Z,50.27
2019-03-31T01:37:25.679Z,49.97
2019-03-31T01:39:55.184Z,49.77
2019-03-31T01:42:24.557Z,49.77
2019-03-31T01:44:53.829Z,44.50
2019-03-31T01:47:23.105Z,43.00
2019-03-31T01:49:52.632Z,42.13
2019-03-31T01:52:21.867Z,41.83
2019-03-31T01:54:51.116Z,40.20
2019-03-31T01:57:20.321Z,37.43
2019-03-31T01:59:49.701Z,40.47
2019-03-31T02:02:21.055Z,35.70
2019-03-31T02:04:50.308Z,52.70
2019-03-31T02:07:19.570Z,38.70
2019-03-31T02:09:48.729Z,35.13
2019-03-31T02:12:18.071Z,33.93
2019-03-31T02:14:47.351Z,35.97
2019-03-31T02:17:16.862Z,34.77
2019-03-31T02:19:46.015Z,38.87
2019-03-31T02:22:15.918Z,33.10
2019-03-31T02:24:45.067Z,38.30
2019-03-31T02:27:14.289Z,31.20
2019-03-31T02:29:43.474Z,37.57
2019-03-31T02:32:23.435Z,37.57
2019-03-31T02:34:43.531Z,30.53
2019-03-31T02:37:12.789Z,28.23
2019-03-31T02:39:41.942Z,32.43
2019-03-31T02:42:11.230Z,28.80
2019-03-31T02:44:40.555Z,36.20
2019-03-31T02:47:09.820Z,36.43
2019-03-31T02:49:39.143Z,36.13
2019-03-31T02:52:08.427Z,44.10
2019-03-31T02:54:37.627Z,53.43
2019-03-31T02:57:07.828Z,46.60
2019-03-31T02:59:37.785Z,45.87
2019-03-31T03:02:08.773Z,42.90
2019-03-31T03:04:39.176Z,40.13
2019-03-31T03:07:10.295Z,39.50
2019-03-31T03:09:42.101Z,38.73
2019-03-31T03:12:11.825Z,37.13
2019-03-31T03:14:41.170Z,38.87
2019-03-31T03:17:10.629Z,35.63
2019-03-31T03:19:39.821Z,32.83
2019-03-31T03:22:08.988Z,32.13
2019-03-31T03:24:38.088Z,36.47
2019-03-31T03:27:07.239Z,36.40
2019-03-31T03:29:36.421Z,37.17
2019-03-31T03:32:05.819Z,33.83
2019-03-31T03:34:35.244Z,32.73
2019-03-31T03:37:04.488Z,29.80
2019-03-31T03:39:33.642Z,32.57
2019-03-31T03:42:02.889Z,36.60
2019-03-31T03:44:32.388Z,36.30
2019-03-31T03:47:01.547Z,28.43
2019-03-31T03:49:30.762Z,31.13
2019-03-31T03:52:00.107Z,29.87
2019-03-31T03:54:29.495Z,27.77
2019-03-31T03:56:58.655Z,29.57
2019-03-31T03:59:27.899Z,34.10
2019-03-31T04:01:57.036Z,33.90
2019-03-31T04:04:26.188Z,28.07
2019-03-31T04:06:55.446Z,28.80
2019-03-31T04:09:24.666Z,34.63
2019-03-31T04:11:53.829Z,26.63
2019-03-31T04:14:23.075Z,31.03
2019-03-31T04:16:52.287Z,33.90
2019-03-31T04:19:21.515Z,31.93
2019-03-31T04:21:50.762Z,35.27
2019-03-31T04:24:20.071Z,35.67
2019-03-31T04:26:49.370Z,36.27
2019-03-31T04:29:18.549Z,38.10
2019-03-31T04:31:47.782Z,42.87
2019-03-31T04:34:16.998Z,42.07
2019-03-31T04:36:46.398Z,40.43
2019-03-31T04:39:15.590Z,39.47
2019-03-31T04:41:44.732Z,36.47
2019-03-31T04:44:14.056Z,37.47
2019-03-31T04:46:43.342Z,36.33
2019-03-31T04:49:12.508Z,34.40
2019-03-31T04:51:41.757Z,34.43
2019-03-31T04:54:10.853Z,35.80
2019-03-31T04:56:39.913Z,33.07
2019-03-31T04:59:09.158Z,31.13
2019-03-31T05:01:38.313Z,36.37
2019-03-31T05:04:07.455Z,35.63
2019-03-31T05:06:36.724Z,33.97
2019-03-31T05:09:06.532Z,35.53
2019-03-31T05:11:35.756Z,29.20
2019-03-31T05:14:05.181Z,33.20
2019-03-31T05:16:34.463Z,26.23
2019-03-31T05:19:03.859Z,25.30
2019-03-31T05:21:33.078Z,29.10
2019-03-31T05:24:02.233Z,35.00
2019-03-31T05:26:31.301Z,36.57
2019-03-31T05:29:02.701Z,29.77
2019-03-31T05:31:31.837Z,29.30
2019-03-31T05:34:00.983Z,28.47
2019-03-31T05:36:30.225Z,28.33
2019-03-31T05:38:59.349Z,28.63
2019-03-31T05:41:28.814Z,30.70
2019-03-31T05:44:05.612Z,30.83
2019-03-31T05:46:28.930Z,32.67
2019-03-31T05:48:58.012Z,34.93
2019-03-31T05:51:27.188Z,35.63
2019-03-31T05:53:56.351Z,33.67
2019-03-31T05:56:25.561Z,33.70
2019-03-31T05:58:54.840Z,30.17
2019-03-31T06:01:24.367Z,37.50
2019-03-31T06:03:53.526Z,35.47
2019-03-31T06:06:22.719Z,33.53
2019-03-31T06:08:51.989Z,31.93
2019-03-31T06:11:21.118Z,33.23
2019-03-31T06:13:50.332Z,26.80
2019-03-31T06:16:19.539Z,33.43
2019-03-31T06:18:48.612Z,30.40
2019-03-31T06:21:17.904Z,28.83
2019-03-31T06:23:46.975Z,30.53
2019-03-31T06:26:16.201Z,29.20
2019-03-31T06:28:45.406Z,27.73
2019-03-31T06:31:14.534Z,28.07
2019-03-31T06:33:43.788Z,29.90
2019-03-31T06:36:13.090Z,32.50
2019-03-31T06:38:42.194Z,33.53
2019-03-31T06:41:11.245Z,31.83
2019-03-31T06:43:40.505Z,50.30
2019-03-31T06:46:09.665Z,32.23
2019-03-31T06:48:38.804Z,38.77
2019-03-31T06:51:08.061Z,37.17
2019-03-31T06:53:37.290Z,33.13
2019-03-31T06:56:06.440Z,36.00
2019-03-31T06:58:35.712Z,34.20
2019-03-31T07:01:04.952Z,35.27
2019-03-31T07:03:34.315Z,33.97
2019-03-31T07:06:03.709Z,35.87
2019-03-31T07:08:32.862Z,35.47
2019-03-31T07:11:02.080Z,35.07
2019-03-31T07:13:31.334Z,36.93
2019-03-31T07:16:00.550Z,34.83
2019-03-31T07:18:29.844Z,133.63
2019-03-31T07:20:59.101Z,73.50
2019-03-31T07:23:28.261Z,43.93
2019-03-31T07:25:57.499Z,41.40
2019-03-31T07:28:26.724Z,38.07
2019-03-31T07:30:59.256Z,33.20
2019-03-31T07:33:27.132Z,30.80
2019-03-31T07:35:56.323Z,31.10
2019-03-31T07:38:38.403Z,33.80
2019-03-31T07:40:56.780Z,35.93
2019-03-31T07:43:26.237Z,35.67
2019-03-31T07:45:56.024Z,33.00
2019-03-31T07:48:25.529Z,36.40
2019-03-31T07:50:54.793Z,38.57
2019-03-31T07:53:24.009Z,37.73
2019-03-31T07:55:53.313Z,37.53
2019-03-31T07:58:22.592Z,33.53
2019-03-31T08:00:51.830Z,34.50
2019-03-31T08:03:21.189Z,33.60
2019-03-31T08:05:50.451Z,36.53
2019-03-31T08:08:19.756Z,36.30
2019-03-31T08:10:49.016Z,35.17
2019-03-31T08:13:18.190Z,35.80
2019-03-31T08:15:47.525Z,34.77
2019-03-31T08:18:16.743Z,34.03
2019-03-31T08:20:45.947Z,32.37
2019-03-31T08:23:15.372Z,31.60
2019-03-31T08:25:44.643Z,32.67
2019-03-31T08:28:13.900Z,31.80
2019-03-31T08:30:43.070Z,27.23
2019-03-31T08:33:12.221Z,24.97
2019-03-31T08:35:47.496Z,24.37
2019-03-31T08:38:12.508Z,23.33
2019-03-31T08:40:41.736Z,23.20
2019-03-31T08:43:10.930Z,24.70
2019-03-31T08:45:40.081Z,25.83
2019-03-31T08:48:09.277Z,24.57
2019-03-31T08:50:38.528Z,21.60
2019-03-31T08:53:07.709Z,20.50
2019-03-31T08:55:36.911Z,20.33
2019-03-31T08:58:06.171Z,19.77
2019-03-31T09:00:37.029Z,20.47
2019-03-31T09:03:06.242Z,19.40
2019-03-31T09:05:35.544Z,18.83
2019-03-31T09:08:04.771Z,19.47
2019-03-31T09:10:34.004Z,19.43
2019-03-31T09:13:03.264Z,17.13
2019-03-31T09:15:32.480Z,17.53
2019-03-31T09:18:01.740Z,19.87
2019-03-31T09:20:31.011Z,18.90
2019-03-31T09:23:00.235Z,17.13
2019-03-31T09:25:29.391Z,15.77
2019-03-31T09:27:58.631Z,26.90
2019-03-31T09:30:27.873Z,17.13
2019-03-31T09:32:57.059Z,14.93
2019-03-31T09:35:26.255Z,15.50
2019-03-31T09:37:55.437Z,14.67
2019-03-31T09:40:24.641Z,14.57
2019-03-31T09:42:53.963Z,13.97
2019-03-31T09:45:23.200Z,13.60
2019-03-31T09:47:52.483Z,13.87
2019-03-31T09:50:22.238Z,12.40
2019-03-31T09:52:51.454Z,13.00
2019-03-31T09:55:23.088Z,14.27
2019-03-31T09:57:51.711Z,15.33
2019-03-31T10:00:45.877Z,18.60
2019-03-31T10:03:15.309Z,18.43
2019-03-31T10:05:47.736Z,18.67
2019-03-31T10:08:15.664Z,17.70
2019-03-31T10:10:44.917Z,18.47
2019-03-31T10:13:14.274Z,17.77
2019-03-31T10:15:43.441Z,17.57
2019-03-31T10:18:12.706Z,18.43
2019-03-31T10:20:41.928Z,17.20
2019-03-31T10:23:11.068Z,16.70
2019-03-31T10:25:40.341Z,16.87
2019-03-31T10:28:09.598Z,17.63
2019-03-31T10:30:40.532Z,19.13
2019-03-31T10:33:09.794Z,20.97
2019-03-31T10:35:39.041Z,18.33
2019-03-31T10:38:08.376Z,18.17
2019-03-31T10:40:37.644Z,16.77
2019-03-31T10:43:06.867Z,15.63
2019-03-31T10:45:36.089Z,15.67
2019-03-31T10:48:19.221Z,15.50
2019-03-31T10:50:36.480Z,16.07
2019-03-31T10:53:05.699Z,15.80
2019-03-31T10:55:34.961Z,15.93
2019-03-31T10:58:04.493Z,15.97
2019-03-31T11:00:38.055Z,14.70
2019-03-31T11:03:09.328Z,23.17
2019-03-31T11:05:38.656Z,17.57
2019-03-31T11:08:07.870Z,16.47
2019-03-31T11:10:37.268Z,16.37
2019-03-31T11:13:06.696Z,15.73
2019-03-31T11:15:35.925Z,16.40
2019-03-31T11:18:05.972Z,16.10
2019-03-31T11:20:35.195Z,16.23
2019-03-31T11:23:08.889Z,16.13
2019-03-31T11:25:38.186Z,16.33
2019-03-31T11:28:07.357Z,15.13
2019-03-31T11:30:36.572Z,16.27
2019-03-31T11:33:07.651Z,15.33
2019-03-31T11:35:36.763Z,14.37
2019-03-31T11:38:06.060Z,13.87
2019-03-31T11:40:35.402Z,14.73
2019-03-31T11:43:04.665Z,14.33
2019-03-31T11:45:34.044Z,14.70
2019-03-31T11:48:03.375Z,14.90
2019-03-31T11:50:32.599Z,14.37
2019-03-31T11:53:01.771Z,13.70
2019-03-31T11:55:31.027Z,13.93
2019-03-31T11:58:00.287Z,13.63
2019-03-31T12:00:31.159Z,12.83
2019-03-31T12:03:00.279Z,13.53
2019-03-31T12:05:29.571Z,12.57
2019-03-31T12:07:58.799Z,11.87
2019-03-31T12:10:28.056Z,11.70
2019-03-31T12:12:57.281Z,11.90
2019-03-31T12:15:26.435Z,11.20
2019-03-31T12:17:55.786Z,11.43
2019-03-31T12:20:25.001Z,10.00
2019-03-31T12:22:54.163Z,9.33
2019-03-31T12:25:25.051Z,8.70
2019-03-31T12:27:54.130Z,9.20
2019-03-31T12:30:29.903Z,9.63
2019-03-31T12:32:59.412Z,10.33
2019-03-31T12:35:28.632Z,9.23
2019-03-31T12:37:57.881Z,9.10
2019-03-31T12:40:34.714Z,8.73
2019-03-31T12:43:04.633Z,8.20
2019-03-31T12:45:33.912Z,8.97
2019-03-31T12:48:03.291Z,8.80
2019-03-31T12:50:32.494Z,8.33
2019-03-31T12:53:01.719Z,7.87
2019-03-31T12:55:30.880Z,8.50
2019-03-31T12:58:00.128Z,8.30
2019-03-31T13:00:29.342Z,7.63
2019-03-31T13:02:58.588Z,7.67
2019-03-31T13:05:27.799Z,8.73
2019-03-31T13:07:57.160Z,7.83
2019-03-31T13:10:26.554Z,7.90
2019-03-31T13:12:55.750Z,7.83
2019-03-31T13:15:25.088Z,7.97
2019-03-31T13:17:54.321Z,8.00
2019-03-31T13:20:23.536Z,7.23
2019-03-31T13:22:52.759Z,7.00
2019-03-31T13:25:22.014Z,7.10
2019-03-31T13:27:51.167Z,7.00
2019-03-31T13:30:22.099Z,6.57
2019-03-31T13:32:51.468Z,7.10
2019-03-31T13:35:20.845Z,6.90
2019-03-31T13:37:50.045Z,6.73
2019-03-31T13:40:19.216Z,6.37
2019-03-31T13:42:48.345Z,6.60
2019-03-31T13:45:17.547Z,6.73
2019-03-31T13:47:46.707Z,6.53
2019-03-31T13:50:16.326Z,6.40
2019-03-31T13:52:45.547Z,6.17
2019-03-31T13:55:14.870Z,6.20
2019-03-31T13:57:46.950Z,5.83
2019-03-31T14:00:25.383Z,6.00
2019-03-31T14:02:49.971Z,5.23
2019-03-31T14:05:19.168Z,5.37
2019-03-31T14:07:48.423Z,5.60
2019-03-31T14:10:17.642Z,5.77
2019-03-31T14:12:46.931Z,6.10
2019-03-31T14:15:19.442Z,5.33
2019-03-31T14:17:47.331Z,5.37
2019-03-31T14:20:17.074Z,4.90
2019-03-31T14:22:46.206Z,5.00
2019-03-31T14:25:15.524Z,4.80
2019-03-31T14:27:44.863Z,4.60
2019-03-31T14:30:14.371Z,5.40
2019-03-31T14:32:43.590Z,5.30
2019-03-31T14:35:13.115Z,5.27
2019-03-31T14:37:42.831Z,5.83
2019-03-31T14:40:12.057Z,5.93
2019-03-31T14:42:41.363Z,5.27
2019-03-31T14:45:13.561Z,5.30
2019-03-31T14:47:42.897Z,5.73
2019-03-31T14:50:15.223Z,5.50
2019-03-31T14:52:44.484Z,5.27
2019-03-31T14:55:13.711Z,6.00
2019-03-31T14:57:42.837Z,6.13
2019-03-31T15:00:14.897Z,5.57
2019-03-31T15:02:42.953Z,5.37
2019-03-31T15:05:12.324Z,5.63
2019-03-31T15:07:41.563Z,5.70
2019-03-31T15:10:10.852Z,5.83
2019-03-31T15:12:40.099Z,5.97
2019-03-31T15:15:09.292Z,6.57
2019-03-31T15:17:38.523Z,6.10
2019-03-31T15:20:07.847Z,5.80
2019-03-31T15:22:37.135Z,6.03
2019-03-31T15:25:07.345Z,5.80
2019-03-31T15:27:36.583Z,5.93
2019-03-31T15:30:07.111Z,6.47
2019-03-31T15:32:36.317Z,6.20
2019-03-31T15:35:06.796Z,6.50
2019-03-31T15:37:35.987Z,6.17
2019-03-31T15:40:06.703Z,6.50
2019-03-31T15:42:35.963Z,6.40
2019-03-31T15:45:06.323Z,6.07
2019-03-31T15:47:35.601Z,6.10
2019-03-31T15:50:06.348Z,6.37
2019-03-31T15:52:35.584Z,6.20
2019-03-31T15:55:06.762Z,6.93
2019-03-31T15:57:35.995Z,6.67
2019-03-31T16:00:07.465Z,6.80
2019-03-31T16:02:36.615Z,6.27
2019-03-31T16:05:08.545Z,6.50
2019-03-31T16:07:37.741Z,6.40
2019-03-31T16:10:07.538Z,6.20
2019-03-31T16:12:37.760Z,6.00
2019-03-31T16:15:07.621Z,6.30
2019-03-31T16:17:36.762Z,5.97
2019-03-31T16:20:06.985Z,6.67
2019-03-31T16:22:36.246Z,6.70
2019-03-31T16:25:25.017Z,6.60
2019-03-31T16:27:54.344Z,6.97
2019-03-31T16:30:23.800Z,6.80
2019-03-31T16:32:53.034Z,7.07
2019-03-31T16:35:22.255Z,6.93
2019-03-31T16:37:51.503Z,7.13
2019-03-31T16:40:20.658Z,7.67
2019-03-31T16:42:49.929Z,8.17
2019-03-31T16:45:19.133Z,7.23
2019-03-31T16:47:48.330Z,7.63
2019-03-31T16:50:17.966Z,7.83
2019-03-31T16:52:47.183Z,7.07
2019-03-31T16:55:16.563Z,8.03
2019-03-31T16:57:45.685Z,7.90
2019-03-31T17:00:15.488Z,7.57
2019-03-31T17:02:44.738Z,7.43
2019-03-31T17:05:21.614Z,9.10
2019-03-31T17:07:47.864Z,9.10
2019-03-31T17:10:17.132Z,9.80
2019-03-31T17:12:46.317Z,9.33
2019-03-31T17:15:15.806Z,9.77
2019-03-31T17:17:45.166Z,9.97
2019-03-31T17:20:14.864Z,9.47
2019-03-31T17:22:44.089Z,8.87
2019-03-31T17:25:13.326Z,9.30
2019-03-31T17:27:42.534Z,8.93
2019-03-31T17:30:12.945Z,8.60
2019-03-31T17:32:42.190Z,9.03
2019-03-31T17:35:11.495Z,9.00
2019-03-31T17:37:40.684Z,8.50
2019-03-31T17:40:09.940Z,9.33
2019-03-31T17:42:39.146Z,10.07
2019-03-31T17:45:08.645Z,9.43
2019-03-31T17:47:37.898Z,9.67
2019-03-31T17:50:07.328Z,10.00
2019-03-31T17:52:36.535Z,10.53
2019-03-31T17:55:06.590Z,10.57
2019-03-31T17:57:35.732Z,11.67
2019-03-31T18:00:08.053Z,11.40
2019-03-31T18:02:37.346Z,10.63
2019-03-31T18:05:08.192Z,11.73
2019-03-31T18:07:37.474Z,12.33
2019-03-31T18:10:20.213Z,11.23
2019-03-31T18:12:38.421Z,11.33
2019-03-31T18:15:07.682Z,13.00
2019-03-31T18:17:36.863Z,11.40
2019-03-31T18:20:08.141Z,13.73
2019-03-31T18:22:37.437Z,12.13
2019-03-31T18:25:07.860Z,11.33
2019-03-31T18:27:37.077Z,12.60
2019-03-31T18:30:07.455Z,12.37
2019-03-31T18:32:36.691Z,12.43
2019-03-31T18:35:07.243Z,11.53
2019-03-31T18:37:36.617Z,11.47
2019-03-31T18:40:07.589Z,10.53
2019-03-31T18:42:36.890Z,14.43
2019-03-31T18:45:07.296Z,36.63
2019-03-31T18:47:36.645Z,49.20
2019-03-31T18:50:07.168Z,45.37
2019-03-31T18:52:36.422Z,46.33
2019-03-31T18:55:14.343Z,46.73
2019-03-31T18:57:48.203Z,40.13
2019-03-31T19:00:19.138Z,41.10
2019-03-31T19:02:50.066Z,42.93
2019-03-31T19:05:24.649Z,40.23
2019-03-31T19:07:58.510Z,42.50
2019-03-31T19:10:49.801Z,41.93
2019-03-31T19:13:27.120Z,46.87
2019-03-31T19:16:01.153Z,47.40
2019-03-31T19:18:32.283Z,44.17
2019-03-31T19:21:11.021Z,47.53
2019-03-31T19:23:40.843Z,49.30
2019-03-31T19:26:11.803Z,49.57
2019-03-31T19:28:42.691Z,44.80
2019-03-31T19:31:19.444Z,44.93
2019-03-31T19:34:06.432Z,46.20
2019-03-31T19:36:43.194Z,52.93
2019-03-31T19:39:19.936Z,47.10
2019-03-31T19:42:02.809Z,46.53
2019-03-31T19:44:33.678Z,52.17
2019-03-31T19:47:16.403Z,51.07
2019-03-31T19:49:47.271Z,53.70
2019-03-31T19:52:30.407Z,68.27
2019-03-31T19:55:17.355Z,66.07
2019-03-31T19:57:57.368Z,69.40
2019-03-31T20:00:34.398Z,85.50
2019-03-31T20:03:11.370Z,84.10
2019-03-31T20:05:58.908Z,77.50
2019-03-31T20:08:35.804Z,72.40
2019-03-31T20:11:22.687Z,64.37
2019-03-31T20:14:11.579Z,62.53
2019-03-31T20:17:00.772Z,60.83
2019-03-31T20:19:37.604Z,52.83
2019-03-31T20:22:08.509Z,61.20
2019-03-31T20:24:55.536Z,51.77
2019-03-31T20:27:32.005Z,50.87
2019-03-31T20:30:05.686Z,61.43
2019-03-31T20:32:36.555Z,48.17
2019-03-31T20:35:08.927Z,63.47
2019-03-31T20:37:42.703Z,57.97
2019-03-31T20:40:16.611Z,59.00
2019-03-31T20:42:50.084Z,55.90
2019-03-31T20:45:19.512Z,59.43
2019-03-31T20:47:48.669Z,66.47
2019-03-31T20:50:18.212Z,57.37
2019-03-31T20:52:47.575Z,59.50
2019-03-31T20:55:17.112Z,54.87
2019-03-31T20:57:46.478Z,61.30
2019-03-31T21:00:15.879Z,63.67
2019-03-31T21:02:45.112Z,74.93
2019-03-31T21:05:14.537Z,84.07
2019-03-31T21:07:43.899Z,78.00
2019-03-31T21:10:13.227Z,81.30
2019-03-31T21:12:42.411Z,79.70
2019-03-31T21:15:11.727Z,77.87
2019-03-31T21:17:41.004Z,64.40
2019-03-31T21:20:10.282Z,75.50
2019-03-31T21:22:39.554Z,84.00
2019-03-31T21:25:08.821Z,83.23
2019-03-31T21:27:38.185Z,80.67
2019-03-31T21:30:08.202Z,80.77
2019-03-31T21:32:37.517Z,80.40
2019-03-31T21:35:07.961Z,72.20
2019-03-31T21:37:37.392Z,59.93
2019-03-31T21:40:09.835Z,56.33
2019-03-31T21:42:39.253Z,55.30
2019-03-31T21:45:08.760Z,51.90
2019-03-31T21:47:37.952Z,53.80
2019-03-31T21:50:08.022Z,51.83
2019-03-31T21:52:37.234Z,52.90
2019-03-31T21:55:08.372Z,50.87
2019-03-31T21:57:37.634Z,50.40
2019-03-31T22:00:11.043Z,48.63
2019-03-31T22:02:40.238Z,47.40
2019-03-31T22:05:10.493Z,48.27
2019-03-31T22:07:39.784Z,48.87
2019-03-31T22:10:09.093Z,49.20
2019-03-31T22:12:38.374Z,45.73
2019-03-31T22:15:07.718Z,45.50
2019-03-31T22:17:36.937Z,48.53
2019-03-31T22:20:07.885Z,47.90
2019-03-31T22:22:37.197Z,43.40
2019-03-31T22:25:07.210Z,41.20
2019-03-31T22:27:36.507Z,49.17
2019-03-31T22:30:08.796Z,59.03
2019-03-31T22:32:38.039Z,49.50
2019-03-31T22:35:07.294Z,55.33
2019-03-31T22:37:36.468Z,55.70
2019-03-31T22:40:06.781Z,49.07
2019-03-31T22:42:36.087Z,48.03
2019-03-31T22:45:06.297Z,50.00
2019-03-31T22:47:35.525Z,48.33
2019-03-31T22:50:05.428Z,46.77
2019-03-31T22:52:34.624Z,41.83
2019-03-31T22:55:04.787Z,43.43
2019-03-31T22:57:34.059Z,39.23
2019-03-31T23:00:03.458Z,43.03
2019-03-31T23:02:32.611Z,40.23
2019-03-31T23:05:02.720Z,39.83
2019-03-31T23:07:31.957Z,41.60
2019-03-31T23:10:01.171Z,43.23
2019-03-31T23:12:30.354Z,41.27
2019-03-31T23:14:59.496Z,41.37
2019-03-31T23:17:28.716Z,39.63
2019-03-31T23:19:57.980Z,41.20
2019-03-31T23:22:27.785Z,38.90
2019-03-31T23:24:57.302Z,40.30
2019-03-31T23:27:26.571Z,39.13
2019-03-31T23:29:55.721Z,37.27
2019-03-31T23:32:24.963Z,33.43
2019-03-31T23:34:54.202Z,33.63
2019-03-31T23:37:23.358Z,31.80
2019-03-31T23:39:52.499Z,31.67
2019-03-31T23:42:21.702Z,26.30
2019-03-31T23:44:50.833Z,27.60
2019-03-31T23:47:19.970Z,33.50
2019-03-31T23:49:49.217Z,30.83
2019-03-31T23:52:18.351Z,32.43
2019-03-31T23:54:47.519Z,34.93
2019-03-31T23:57:16.836Z,32.97
2019-03-31T23:59:45.980Z,33.67
